sensor_id;sensor_type;location;lat;lon;timestamp;P1;durP1;ratioP1;P2;durP2;ratioP2
76336;SDS011;65157;50.082;18.178;2023-04-01T00:00:03;81.70;;;18.80;;
76336;SDS011;65157;50.082;18.178;2023-04-01T00:02:51;95.90;;;22.70;;
76336;SDS011;65157;50.082;18.178;2023-04-01T00:05:18;81.60;;;18.00;;
76336;SDS011;65157;50.082;18.178;2023-04-01T00:07:45;67.40;;;16.70;;
76336;SDS011;65157;50.082;18.178;2023-04-01T00:10:12;26.00;;;6.70;;
76336;SDS011;65157;50.082;18.178;2023-04-01T00:12:40;12.40;;;4.50;;
76336;SDS011;65157;50.082;18.178;2023-04-01T00:15:11;5.70;;;2.60;;
76336;SDS011;65157;50.082;18.178;2023-04-01T00:17:45;2.70;;;1.80;;
76336;SDS011;65157;50.082;18.178;2023-04-01T00:20:12;3.80;;;2.60;;
76336;SDS011;65157;50.082;18.178;2023-04-01T00:22:40;4.70;;;1.90;;
76336;SDS011;65157;50.082;18.178;2023-04-01T00:25:07;2.80;;;1.70;;
76336;SDS011;65157;50.082;18.178;2023-04-01T00:27:34;2.60;;;1.50;;
76336;SDS011;65157;50.082;18.178;2023-04-01T00:30:00;1.60;;;1.50;;
76336;SDS011;65157;50.082;18.178;2023-04-01T00:32:30;2.10;;;1.20;;
76336;SDS011;65157;50.082;18.178;2023-04-01T00:34:57;3.60;;;1.70;;
76336;SDS011;65157;50.082;18.178;2023-04-01T00:37:23;2.70;;;1.80;;
76336;SDS011;65157;50.082;18.178;2023-04-01T00:39:50;4.90;;;2.00;;
76336;SDS011;65157;50.082;18.178;2023-04-01T00:42:17;1.80;;;1.40;;
76336;SDS011;65157;50.082;18.178;2023-04-01T00:47:16;3.60;;;1.90;;
76336;SDS011;65157;50.082;18.178;2023-04-01T00:49:45;3.30;;;1.90;;
76336;SDS011;65157;50.082;18.178;2023-04-01T00:52:15;3.10;;;1.60;;
76336;SDS011;65157;50.082;18.178;2023-04-01T00:54:46;3.10;;;1.40;;
76336;SDS011;65157;50.082;18.178;2023-04-01T00:57:20;4.20;;;2.00;;
76336;SDS011;65157;50.082;18.178;2023-04-01T00:59:52;1.80;;;1.50;;
76336;SDS011;65157;50.082;18.178;2023-04-01T01:02:20;3.70;;;1.80;;
76336;SDS011;65157;50.082;18.178;2023-04-01T01:04:50;4.30;;;2.00;;
76336;SDS011;65157;50.082;18.178;2023-04-01T01:12:45;3.40;;;1.70;;
76336;SDS011;65157;50.082;18.178;2023-04-01T01:15:30;4.20;;;1.70;;
76336;SDS011;65157;50.082;18.178;2023-04-01T01:18:03;5.80;;;1.60;;
76336;SDS011;65157;50.082;18.178;2023-04-01T01:23:42;3.00;;;1.60;;
76336;SDS011;65157;50.082;18.178;2023-04-01T01:26:38;3.20;;;1.80;;
76336;SDS011;65157;50.082;18.178;2023-04-01T01:37:13;3.20;;;1.70;;
76336;SDS011;65157;50.082;18.178;2023-04-01T01:39:43;3.40;;;1.80;;
76336;SDS011;65157;50.082;18.178;2023-04-01T01:42:16;2.10;;;1.60;;
76336;SDS011;65157;50.082;18.178;2023-04-01T01:44:48;2.50;;;1.70;;
76336;SDS011;65157;50.082;18.178;2023-04-01T01:47:17;2.10;;;1.60;;
76336;SDS011;65157;50.082;18.178;2023-04-01T01:49:47;2.50;;;1.50;;
76336;SDS011;65157;50.082;18.178;2023-04-01T01:52:14;3.20;;;1.90;;
76336;SDS011;65157;50.082;18.178;2023-04-01T01:54:47;2.10;;;1.40;;
76336;SDS011;65157;50.082;18.178;2023-04-01T01:57:28;2.50;;;1.60;;
76336;SDS011;65157;50.082;18.178;2023-04-01T02:00:05;1.40;;;1.20;;
76336;SDS011;65157;50.082;18.178;2023-04-01T02:02:44;2.00;;;1.30;;
76336;SDS011;65157;50.082;18.178;2023-04-01T02:05:19;4.40;;;1.50;;
76336;SDS011;65157;50.082;18.178;2023-04-01T02:07:55;1.60;;;1.30;;
76336;SDS011;65157;50.082;18.178;2023-04-01T02:10:28;3.60;;;1.60;;
76336;SDS011;65157;50.082;18.178;2023-04-01T02:13:13;1.50;;;1.40;;
76336;SDS011;65157;50.082;18.178;2023-04-01T02:16:03;0.70;;;0.70;;
76336;SDS011;65157;50.082;18.178;2023-04-01T02:18:35;1.30;;;1.20;;
76336;SDS011;65157;50.082;18.178;2023-04-01T02:21:06;3.70;;;1.40;;
76336;SDS011;65157;50.082;18.178;2023-04-01T02:23:35;2.80;;;1.20;;
76336;SDS011;65157;50.082;18.178;2023-04-01T02:26:07;3.40;;;1.40;;
76336;SDS011;65157;50.082;18.178;2023-04-01T02:28:37;1.50;;;1.20;;
76336;SDS011;65157;50.082;18.178;2023-04-01T02:31:05;2.60;;;1.30;;
76336;SDS011;65157;50.082;18.178;2023-04-01T02:33:34;2.40;;;1.60;;
76336;SDS011;65157;50.082;18.178;2023-04-01T02:36:01;1.80;;;1.60;;
76336;SDS011;65157;50.082;18.178;2023-04-01T02:38:28;3.20;;;2.20;;
76336;SDS011;65157;50.082;18.178;2023-04-01T02:40:59;2.00;;;1.40;;
76336;SDS011;65157;50.082;18.178;2023-04-01T02:43:27;3.70;;;1.90;;
76336;SDS011;65157;50.082;18.178;2023-04-01T02:45:54;2.80;;;1.70;;
76336;SDS011;65157;50.082;18.178;2023-04-01T02:48:20;1.70;;;1.50;;
76336;SDS011;65157;50.082;18.178;2023-04-01T02:50:47;2.90;;;1.80;;
76336;SDS011;65157;50.082;18.178;2023-04-01T02:53:14;2.00;;;1.80;;
76336;SDS011;65157;50.082;18.178;2023-04-01T02:55:41;3.20;;;1.90;;
76336;SDS011;65157;50.082;18.178;2023-04-01T02:58:08;2.00;;;1.60;;
76336;SDS011;65157;50.082;18.178;2023-04-01T03:00:35;4.00;;;1.90;;
76336;SDS011;65157;50.082;18.178;2023-04-01T03:03:01;3.60;;;2.00;;
76336;SDS011;65157;50.082;18.178;2023-04-01T03:05:28;3.70;;;2.00;;
76336;SDS011;65157;50.082;18.178;2023-04-01T03:07:55;2.50;;;1.50;;
76336;SDS011;65157;50.082;18.178;2023-04-01T03:10:22;4.00;;;1.90;;
76336;SDS011;65157;50.082;18.178;2023-04-01T03:12:49;2.70;;;1.70;;
76336;SDS011;65157;50.082;18.178;2023-04-01T03:15:16;3.30;;;2.00;;
76336;SDS011;65157;50.082;18.178;2023-04-01T03:17:45;1.70;;;1.60;;
76336;SDS011;65157;50.082;18.178;2023-04-01T03:20:14;5.10;;;2.20;;
76336;SDS011;65157;50.082;18.178;2023-04-01T03:22:42;2.10;;;1.60;;
76336;SDS011;65157;50.082;18.178;2023-04-01T03:25:09;1.60;;;1.40;;
76336;SDS011;65157;50.082;18.178;2023-04-01T03:27:36;2.50;;;1.70;;
76336;SDS011;65157;50.082;18.178;2023-04-01T03:30:07;2.40;;;2.20;;
76336;SDS011;65157;50.082;18.178;2023-04-01T03:32:35;4.80;;;1.60;;
76336;SDS011;65157;50.082;18.178;2023-04-01T03:35:02;2.70;;;1.60;;
76336;SDS011;65157;50.082;18.178;2023-04-01T03:37:29;2.00;;;1.60;;
76336;SDS011;65157;50.082;18.178;2023-04-01T03:40:02;2.20;;;1.80;;
76336;SDS011;65157;50.082;18.178;2023-04-01T03:42:30;3.20;;;1.60;;
76336;SDS011;65157;50.082;18.178;2023-04-01T03:44:57;2.40;;;1.40;;
76336;SDS011;65157;50.082;18.178;2023-04-01T03:47:24;1.90;;;1.10;;
76336;SDS011;65157;50.082;18.178;2023-04-01T03:49:51;2.10;;;1.50;;
76336;SDS011;65157;50.082;18.178;2023-04-01T03:52:17;2.70;;;1.40;;
76336;SDS011;65157;50.082;18.178;2023-04-01T03:54:44;3.10;;;1.90;;
76336;SDS011;65157;50.082;18.178;2023-04-01T03:57:12;3.20;;;1.70;;
76336;SDS011;65157;50.082;18.178;2023-04-01T03:59:39;4.50;;;1.50;;
76336;SDS011;65157;50.082;18.178;2023-04-01T04:02:05;2.80;;;1.40;;
76336;SDS011;65157;50.082;18.178;2023-04-01T04:04:32;2.80;;;1.50;;
76336;SDS011;65157;50.082;18.178;2023-04-01T04:07:00;3.40;;;1.40;;
76336;SDS011;65157;50.082;18.178;2023-04-01T04:09:31;3.10;;;1.70;;
76336;SDS011;65157;50.082;18.178;2023-04-01T04:12:00;2.80;;;1.40;;
76336;SDS011;65157;50.082;18.178;2023-04-01T04:17:02;1.80;;;1.30;;
76336;SDS011;65157;50.082;18.178;2023-04-01T04:19:48;1.70;;;1.00;;
76336;SDS011;65157;50.082;18.178;2023-04-01T04:22:19;1.60;;;1.50;;
76336;SDS011;65157;50.082;18.178;2023-04-01T04:24:48;2.70;;;1.60;;
76336;SDS011;65157;50.082;18.178;2023-04-01T04:27:24;2.20;;;1.60;;
76336;SDS011;65157;50.082;18.178;2023-04-01T04:29:57;3.30;;;1.60;;
76336;SDS011;65157;50.082;18.178;2023-04-01T04:32:31;4.80;;;1.90;;
76336;SDS011;65157;50.082;18.178;2023-04-01T04:35:01;1.70;;;1.60;;
76336;SDS011;65157;50.082;18.178;2023-04-01T04:37:28;3.20;;;1.60;;
76336;SDS011;65157;50.082;18.178;2023-04-01T04:39:55;3.40;;;1.90;;
76336;SDS011;65157;50.082;18.178;2023-04-01T04:42:21;3.90;;;1.60;;
76336;SDS011;65157;50.082;18.178;2023-04-01T04:44:48;2.90;;;2.10;;
76336;SDS011;65157;50.082;18.178;2023-04-01T04:47:15;3.10;;;1.50;;
76336;SDS011;65157;50.082;18.178;2023-04-01T04:49:42;3.90;;;1.60;;
76336;SDS011;65157;50.082;18.178;2023-04-01T04:52:11;5.40;;;2.00;;
76336;SDS011;65157;50.082;18.178;2023-04-01T04:54:41;3.10;;;1.90;;
76336;SDS011;65157;50.082;18.178;2023-04-01T04:57:10;4.00;;;1.80;;
76336;SDS011;65157;50.082;18.178;2023-04-01T04:59:37;4.10;;;2.00;;
76336;SDS011;65157;50.082;18.178;2023-04-01T05:04:33;2.50;;;1.70;;
76336;SDS011;65157;50.082;18.178;2023-04-01T05:07:02;3.00;;;2.10;;
76336;SDS011;65157;50.082;18.178;2023-04-01T05:11:55;3.70;;;2.30;;
76336;SDS011;65157;50.082;18.178;2023-04-01T05:14:22;2.00;;;1.60;;
76336;SDS011;65157;50.082;18.178;2023-04-01T05:16:49;1.80;;;1.30;;
76336;SDS011;65157;50.082;18.178;2023-04-01T05:19:16;2.50;;;1.60;;
76336;SDS011;65157;50.082;18.178;2023-04-01T05:21:42;3.30;;;1.60;;
76336;SDS011;65157;50.082;18.178;2023-04-01T05:24:10;3.70;;;1.40;;
76336;SDS011;65157;50.082;18.178;2023-04-01T05:26:40;3.30;;;1.40;;
76336;SDS011;65157;50.082;18.178;2023-04-01T05:29:07;2.00;;;1.30;;
76336;SDS011;65157;50.082;18.178;2023-04-01T05:31:37;1.10;;;1.10;;
76336;SDS011;65157;50.082;18.178;2023-04-01T05:34:04;2.80;;;1.40;;
76336;SDS011;65157;50.082;18.178;2023-04-01T05:36:31;5.80;;;1.80;;
76336;SDS011;65157;50.082;18.178;2023-04-01T05:38:58;5.10;;;1.90;;
76336;SDS011;65157;50.082;18.178;2023-04-01T05:41:24;4.60;;;2.00;;
76336;SDS011;65157;50.082;18.178;2023-04-01T05:43:51;3.60;;;1.60;;
76336;SDS011;65157;50.082;18.178;2023-04-01T05:46:23;3.60;;;1.30;;
76336;SDS011;65157;50.082;18.178;2023-04-01T05:48:53;2.20;;;1.30;;
76336;SDS011;65157;50.082;18.178;2023-04-01T05:51:20;3.00;;;1.70;;
76336;SDS011;65157;50.082;18.178;2023-04-01T05:53:47;3.00;;;1.60;;
76336;SDS011;65157;50.082;18.178;2023-04-01T05:56:13;3.10;;;1.60;;
76336;SDS011;65157;50.082;18.178;2023-04-01T05:58:40;3.70;;;1.70;;
76336;SDS011;65157;50.082;18.178;2023-04-01T06:01:08;4.10;;;2.00;;
76336;SDS011;65157;50.082;18.178;2023-04-01T06:03:37;5.50;;;2.50;;
76336;SDS011;65157;50.082;18.178;2023-04-01T06:06:11;8.70;;;3.70;;
76336;SDS011;65157;50.082;18.178;2023-04-01T06:08:40;8.20;;;3.50;;
76336;SDS011;65157;50.082;18.178;2023-04-01T06:11:26;3.70;;;2.00;;
76336;SDS011;65157;50.082;18.178;2023-04-01T06:14:30;3.00;;;2.30;;
76336;SDS011;65157;50.082;18.178;2023-04-01T06:20:29;2.00;;;1.70;;
76336;SDS011;65157;50.082;18.178;2023-04-01T06:23:46;1.60;;;1.20;;
76336;SDS011;65157;50.082;18.178;2023-04-01T06:28:58;1.40;;;1.30;;
76336;SDS011;65157;50.082;18.178;2023-04-01T06:31:49;1.70;;;1.10;;
76336;SDS011;65157;50.082;18.178;2023-04-01T06:42:45;2.50;;;1.50;;
76336;SDS011;65157;50.082;18.178;2023-04-01T06:58:30;1.90;;;0.90;;
76336;SDS011;65157;50.082;18.178;2023-04-01T07:01:07;2.60;;;1.40;;
76336;SDS011;65157;50.082;18.178;2023-04-01T07:03:44;1.70;;;1.30;;
76336;SDS011;65157;50.082;18.178;2023-04-01T07:06:31;1.80;;;1.10;;
76336;SDS011;65157;50.082;18.178;2023-04-01T07:09:04;3.50;;;1.70;;
76336;SDS011;65157;50.082;18.178;2023-04-01T07:11:37;3.80;;;1.80;;
76336;SDS011;65157;50.082;18.178;2023-04-01T07:17:17;1.40;;;1.30;;
76336;SDS011;65157;50.082;18.178;2023-04-01T07:19:53;2.00;;;1.30;;
76336;SDS011;65157;50.082;18.178;2023-04-01T07:22:40;2.20;;;1.50;;
76336;SDS011;65157;50.082;18.178;2023-04-01T07:25:14;1.20;;;1.00;;
76336;SDS011;65157;50.082;18.178;2023-04-01T07:27:47;3.40;;;1.20;;
76336;SDS011;65157;50.082;18.178;2023-04-01T07:36:25;1.10;;;0.90;;
76336;SDS011;65157;50.082;18.178;2023-04-01T07:42:04;1.60;;;1.10;;
76336;SDS011;65157;50.082;18.178;2023-04-01T07:44:44;1.50;;;1.20;;
76336;SDS011;65157;50.082;18.178;2023-04-01T07:47:43;1.10;;;1.00;;
76336;SDS011;65157;50.082;18.178;2023-04-01T07:50:27;1.60;;;1.10;;
76336;SDS011;65157;50.082;18.178;2023-04-01T07:55:46;1.20;;;1.10;;
76336;SDS011;65157;50.082;18.178;2023-04-01T08:01:45;1.50;;;1.20;;
76336;SDS011;65157;50.082;18.178;2023-04-01T08:21:28;1.40;;;1.30;;
76336;SDS011;65157;50.082;18.178;2023-04-01T08:24:41;1.00;;;1.00;;
76336;SDS011;65157;50.082;18.178;2023-04-01T08:27:31;0.60;;;0.50;;
76336;SDS011;65157;50.082;18.178;2023-04-01T08:30:17;0.60;;;0.40;;
76336;SDS011;65157;50.082;18.178;2023-04-01T08:32:56;1.00;;;0.90;;
76336;SDS011;65157;50.082;18.178;2023-04-01T08:35:37;0.50;;;0.50;;
76336;SDS011;65157;50.082;18.178;2023-04-01T08:41:30;1.70;;;0.90;;
76336;SDS011;65157;50.082;18.178;2023-04-01T09:00:52;2.10;;;0.50;;
76336;SDS011;65157;50.082;18.178;2023-04-01T09:06:23;1.60;;;1.00;;
76336;SDS011;65157;50.082;18.178;2023-04-01T09:09:47;0.70;;;0.70;;
76336;SDS011;65157;50.082;18.178;2023-04-01T09:14:58;1.20;;;1.10;;
76336;SDS011;65157;50.082;18.178;2023-04-01T09:20:47;0.70;;;0.70;;
76336;SDS011;65157;50.082;18.178;2023-04-01T09:23:37;0.90;;;0.50;;
76336;SDS011;65157;50.082;18.178;2023-04-01T09:29:05;1.20;;;1.00;;
76336;SDS011;65157;50.082;18.178;2023-04-01T09:32:03;0.70;;;0.70;;
76336;SDS011;65157;50.082;18.178;2023-04-01T09:38:01;1.10;;;0.60;;
76336;SDS011;65157;50.082;18.178;2023-04-01T09:41:01;1.30;;;1.00;;
76336;SDS011;65157;50.082;18.178;2023-04-01T09:52:07;0.70;;;0.60;;
76336;SDS011;65157;50.082;18.178;2023-04-01T10:06:16;1.10;;;0.90;;
76336;SDS011;65157;50.082;18.178;2023-04-01T10:08:57;1.10;;;0.70;;
76336;SDS011;65157;50.082;18.178;2023-04-01T10:12:14;1.00;;;0.80;;
76336;SDS011;65157;50.082;18.178;2023-04-01T10:22:50;0.70;;;0.70;;
76336;SDS011;65157;50.082;18.178;2023-04-01T10:28:52;0.80;;;0.60;;
76336;SDS011;65157;50.082;18.178;2023-04-01T10:36:54;0.50;;;0.50;;
76336;SDS011;65157;50.082;18.178;2023-04-01T10:45:39;1.60;;;0.90;;
76336;SDS011;65157;50.082;18.178;2023-04-01T11:45:47;2.90;;;1.80;;
76336;SDS011;65157;50.082;18.178;2023-04-01T12:12:20;1.60;;;1.00;;
76336;SDS011;65157;50.082;18.178;2023-04-01T12:17:48;1.30;;;0.90;;
76336;SDS011;65157;50.082;18.178;2023-04-01T12:28:59;0.50;;;0.50;;
76336;SDS011;65157;50.082;18.178;2023-04-01T12:34:53;1.00;;;0.80;;
76336;SDS011;65157;50.082;18.178;2023-04-01T12:37:47;1.10;;;0.80;;
76336;SDS011;65157;50.082;18.178;2023-04-01T12:46:24;1.70;;;1.40;;
76336;SDS011;65157;50.082;18.178;2023-04-01T12:49:03;1.10;;;1.00;;
76336;SDS011;65157;50.082;18.178;2023-04-01T13:26:36;2.60;;;1.00;;
76336;SDS011;65157;50.082;18.178;2023-04-01T13:37:57;2.50;;;1.60;;
76336;SDS011;65157;50.082;18.178;2023-04-01T13:40:48;2.30;;;1.40;;
76336;SDS011;65157;50.082;18.178;2023-04-01T13:43:26;1.70;;;1.30;;
76336;SDS011;65157;50.082;18.178;2023-04-01T13:48:46;2.40;;;1.40;;
76336;SDS011;65157;50.082;18.178;2023-04-01T13:51:56;1.40;;;0.80;;
76336;SDS011;65157;50.082;18.178;2023-04-01T13:57:29;2.20;;;1.30;;
76336;SDS011;65157;50.082;18.178;2023-04-01T14:00:16;1.20;;;1.10;;
76336;SDS011;65157;50.082;18.178;2023-04-01T14:03:04;1.90;;;1.40;;
76336;SDS011;65157;50.082;18.178;2023-04-01T14:14:18;0.90;;;0.80;;
76336;SDS011;65157;50.082;18.178;2023-04-01T14:31:30;4.00;;;2.40;;
76336;SDS011;65157;50.082;18.178;2023-04-01T14:49:30;11.50;;;5.50;;
76336;SDS011;65157;50.082;18.178;2023-04-01T14:52:10;2.60;;;1.70;;
76336;SDS011;65157;50.082;18.178;2023-04-01T14:54:44;2.80;;;1.10;;
76336;SDS011;65157;50.082;18.178;2023-04-01T14:57:15;1.10;;;1.00;;
76336;SDS011;65157;50.082;18.178;2023-04-01T15:00:13;8.60;;;4.10;;
76336;SDS011;65157;50.082;18.178;2023-04-01T15:05:25;33.60;;;12.10;;
76336;SDS011;65157;50.082;18.178;2023-04-01T15:08:24;10.30;;;4.50;;
76336;SDS011;65157;50.082;18.178;2023-04-01T15:16:21;18.60;;;8.30;;
76336;SDS011;65157;50.082;18.178;2023-04-01T15:21:46;10.90;;;5.30;;
76336;SDS011;65157;50.082;18.178;2023-04-01T15:24:46;9.40;;;4.80;;
76336;SDS011;65157;50.082;18.178;2023-04-01T15:27:41;11.30;;;5.10;;
76336;SDS011;65157;50.082;18.178;2023-04-01T15:37:13;12.90;;;7.60;;
76336;SDS011;65157;50.082;18.178;2023-04-01T15:40:38;9.50;;;5.60;;
76336;SDS011;65157;50.082;18.178;2023-04-01T15:45:31;7.70;;;5.90;;
76336;SDS011;65157;50.082;18.178;2023-04-01T15:48:33;15.20;;;9.40;;
76336;SDS011;65157;50.082;18.178;2023-04-01T15:57:52;8.90;;;4.90;;
76336;SDS011;65157;50.082;18.178;2023-04-01T16:00:49;9.90;;;6.90;;
76336;SDS011;65157;50.082;18.178;2023-04-01T16:06:14;5.90;;;3.30;;
76336;SDS011;65157;50.082;18.178;2023-04-01T16:12:15;5.30;;;3.10;;
76336;SDS011;65157;50.082;18.178;2023-04-01T16:15:10;3.10;;;2.20;;
76336;SDS011;65157;50.082;18.178;2023-04-01T16:17:55;2.70;;;1.80;;
76336;SDS011;65157;50.082;18.178;2023-04-01T16:23:40;1.40;;;1.20;;
76336;SDS011;65157;50.082;18.178;2023-04-01T16:29:10;1.60;;;1.20;;
76336;SDS011;65157;50.082;18.178;2023-04-01T16:31:55;0.80;;;0.70;;
76336;SDS011;65157;50.082;18.178;2023-04-01T16:34:27;2.30;;;1.00;;
76336;SDS011;65157;50.082;18.178;2023-04-01T16:47:55;3.10;;;2.30;;
76336;SDS011;65157;50.082;18.178;2023-04-01T16:50:30;4.30;;;2.40;;
76336;SDS011;65157;50.082;18.178;2023-04-01T16:58:25;3.00;;;1.60;;
76336;SDS011;65157;50.082;18.178;2023-04-01T17:01:01;1.60;;;1.40;;
76336;SDS011;65157;50.082;18.178;2023-04-01T17:03:33;3.40;;;2.30;;
76336;SDS011;65157;50.082;18.178;2023-04-01T17:11:42;2.70;;;1.80;;
76336;SDS011;65157;50.082;18.178;2023-04-01T17:14:25;9.10;;;5.00;;
76336;SDS011;65157;50.082;18.178;2023-04-01T17:17:11;34.50;;;14.80;;
76336;SDS011;65157;50.082;18.178;2023-04-01T17:22:55;10.00;;;4.80;;
76336;SDS011;65157;50.082;18.178;2023-04-01T17:42:22;4.70;;;2.70;;
76336;SDS011;65157;50.082;18.178;2023-04-01T17:44:59;3.90;;;3.00;;
76336;SDS011;65157;50.082;18.178;2023-04-01T17:53:33;5.30;;;3.10;;
76336;SDS011;65157;50.082;18.178;2023-04-01T18:04:31;6.70;;;4.30;;
76336;SDS011;65157;50.082;18.178;2023-04-01T18:12:56;4.60;;;3.00;;
76336;SDS011;65157;50.082;18.178;2023-04-01T18:15:45;2.60;;;2.00;;
76336;SDS011;65157;50.082;18.178;2023-04-01T18:18:35;4.00;;;2.90;;
76336;SDS011;65157;50.082;18.178;2023-04-01T18:21:10;4.80;;;3.20;;
76336;SDS011;65157;50.082;18.178;2023-04-01T18:26:27;3.00;;;2.50;;
76336;SDS011;65157;50.082;18.178;2023-04-01T18:31:43;5.20;;;3.50;;
76336;SDS011;65157;50.082;18.178;2023-04-01T18:34:19;5.80;;;3.30;;
76336;SDS011;65157;50.082;18.178;2023-04-01T18:37:13;5.80;;;3.90;;
76336;SDS011;65157;50.082;18.178;2023-04-01T18:40:04;4.90;;;3.60;;
76336;SDS011;65157;50.082;18.178;2023-04-01T18:48:33;31.30;;;13.30;;
76336;SDS011;65157;50.082;18.178;2023-04-01T18:51:10;35.90;;;15.00;;
76336;SDS011;65157;50.082;18.178;2023-04-01T18:53:42;27.50;;;12.70;;
76336;SDS011;65157;50.082;18.178;2023-04-01T18:56:37;37.50;;;15.00;;
76336;SDS011;65157;50.082;18.178;2023-04-01T19:07:39;6.70;;;4.30;;
76336;SDS011;65157;50.082;18.178;2023-04-01T19:10:17;8.10;;;5.00;;
76336;SDS011;65157;50.082;18.178;2023-04-01T19:12:49;12.90;;;6.10;;
76336;SDS011;65157;50.082;18.178;2023-04-01T19:26:40;8.10;;;5.40;;
76336;SDS011;65157;50.082;18.178;2023-04-01T19:29:17;11.90;;;6.50;;
76336;SDS011;65157;50.082;18.178;2023-04-01T19:34:59;16.00;;;10.10;;
76336;SDS011;65157;50.082;18.178;2023-04-01T19:37:51;15.00;;;9.00;;
76336;SDS011;65157;50.082;18.178;2023-04-01T19:51:48;12.20;;;7.00;;
76336;SDS011;65157;50.082;18.178;2023-04-01T20:17:15;20.60;;;10.70;;
76336;SDS011;65157;50.082;18.178;2023-04-01T20:25:21;24.40;;;11.20;;
76336;SDS011;65157;50.082;18.178;2023-04-01T20:33:53;14.60;;;7.40;;
76336;SDS011;65157;50.082;18.178;2023-04-01T20:50:32;12.80;;;6.70;;
76336;SDS011;65157;50.082;18.178;2023-04-01T21:01:13;20.60;;;9.30;;
76336;SDS011;65157;50.082;18.178;2023-04-01T21:09:38;22.10;;;10.70;;
76336;SDS011;65157;50.082;18.178;2023-04-01T21:22:58;16.70;;;8.70;;
76336;SDS011;65157;50.082;18.178;2023-04-01T21:31:59;23.70;;;11.90;;
76336;SDS011;65157;50.082;18.178;2023-04-01T21:37:12;17.60;;;10.90;;
76336;SDS011;65157;50.082;18.178;2023-04-01T21:51:21;17.20;;;9.60;;
76336;SDS011;65157;50.082;18.178;2023-04-01T22:00:12;13.40;;;7.80;;
76336;SDS011;65157;50.082;18.178;2023-04-01T22:06:27;14.70;;;7.00;;
76336;SDS011;65157;50.082;18.178;2023-04-01T22:09:21;12.90;;;7.30;;
76336;SDS011;65157;50.082;18.178;2023-04-01T22:12:09;15.40;;;7.60;;
76336;SDS011;65157;50.082;18.178;2023-04-01T22:18:07;12.60;;;7.70;;
76336;SDS011;65157;50.082;18.178;2023-04-01T22:21:12;13.70;;;7.80;;
76336;SDS011;65157;50.082;18.178;2023-04-01T22:24:13;16.40;;;7.50;;
76336;SDS011;65157;50.082;18.178;2023-04-01T22:32:17;17.40;;;8.90;;
76336;SDS011;65157;50.082;18.178;2023-04-01T22:34:56;17.00;;;8.70;;
76336;SDS011;65157;50.082;18.178;2023-04-01T22:37:37;11.70;;;6.40;;
76336;SDS011;65157;50.082;18.178;2023-04-01T22:40:30;16.70;;;7.00;;
76336;SDS011;65157;50.082;18.178;2023-04-01T22:43:12;16.10;;;8.70;;
76336;SDS011;65157;50.082;18.178;2023-04-01T22:51:45;15.50;;;8.00;;
76336;SDS011;65157;50.082;18.178;2023-04-01T22:54:27;16.10;;;8.60;;
76336;SDS011;65157;50.082;18.178;2023-04-01T22:57:12;16.30;;;8.00;;
76336;SDS011;65157;50.082;18.178;2023-04-01T23:00:12;14.70;;;8.00;;
76336;SDS011;65157;50.082;18.178;2023-04-01T23:05:49;17.70;;;8.40;;
76336;SDS011;65157;50.082;18.178;2023-04-01T23:11:14;15.40;;;8.70;;
76336;SDS011;65157;50.082;18.178;2023-04-01T23:13:46;15.00;;;8.40;;
76336;SDS011;65157;50.082;18.178;2023-04-01T23:16:21;14.30;;;8.10;;
76336;SDS011;65157;50.082;18.178;2023-04-01T23:21:48;12.70;;;7.20;;
76336;SDS011;65157;50.082;18.178;2023-04-01T23:24:22;12.20;;;7.20;;
76336;SDS011;65157;50.082;18.178;2023-04-01T23:27:08;13.80;;;7.00;;
76336;SDS011;65157;50.082;18.178;2023-04-01T23:29:46;12.50;;;6.70;;
76336;SDS011;65157;50.082;18.178;2023-04-01T23:32:16;11.40;;;6.20;;
76336;SDS011;65157;50.082;18.178;2023-04-01T23:34:49;11.50;;;6.30;;
76336;SDS011;65157;50.082;18.178;2023-04-01T23:37:18;9.50;;;6.40;;
76336;SDS011;65157;50.082;18.178;2023-04-01T23:39:48;11.30;;;6.40;;
76336;SDS011;65157;50.082;18.178;2023-04-01T23:45:16;9.60;;;5.90;;
76336;SDS011;65157;50.082;18.178;2023-04-01T23:47:47;13.20;;;5.70;;
76336;SDS011;65157;50.082;18.178;2023-04-01T23:52:48;11.00;;;6.10;;
76336;SDS011;65157;50.082;18.178;2023-04-01T23:55:24;9.10;;;5.30;;
